Collado-Villalba, Spain
Current Conditions -  °F | °C
As of 12:00 PM on Friday 24 Oct 2014 (Local Time) from LEVS Reporting Station
Clear Clear  
Wind Chill: 73°   Ceiling: Unl
Heat Index: 73°   Visibility: 6mi
Dew Point: 46°   Wind: 0mph
Humidity: 38%   Direction: NA
Pressure: 30.18"   Gusts: NA
Location:  40.64°N, 4°W
Report Text: LEVS 241000Z 00000KT CAVOK 23/08 Q1022
Loading
Personal Weather Stations






























Interactive Weather Map
Tropical Storm Tracking
New forecast layout! Learn more

10-Day Weather Forecast

Advertisements
Track Severe Weather on mobile